Time;durP1;ratioP1;P1;durP2;ratioP2;P2;SDS_P1;SDS_P2;PMS_P1;PMS_P2;Temp;Humidity;BMP_temperature;BMP_pressure;BME280_temperature;BME280_humidity;BME280_pressure;Samples;Min_cycle;Max_cycle;Signal;HPM_P1;HPM_P2
2022/01/11 00:02:04;;;;;;;50.25;18.50;;;0.60;99.90;;;;;;4956064;29;20039;-86
2022/01/11 00:04:31;;;;;;;67.93;22.58;;;0.50;99.90;;;;;;4939800;29;20027;-86
2022/01/11 00:06:58;;;;;;;60.15;19.20;;;0.60;99.90;;;;;;4956201;29;20046;-86
2022/01/11 00:09:34;;;;;;;55.58;19.45;;;0.60;99.90;;;;;;4957791;28;20039;-86
2022/01/11 00:12:00;;;;;;;64.72;21.40;;;0.70;99.90;;;;;;4959110;29;20035;-86
2022/01/11 00:14:26;;;;;;;63.17;21.88;;;0.70;99.90;;;;;;4959275;28;20042;-86
2022/01/11 00:16:51;;;;;;;66.50;21.10;;;0.70;99.90;;;;;;4959366;29;20039;-86
2022/01/11 00:19:17;;;;;;;62.13;21.17;;;0.70;99.90;;;;;;4943713;29;20035;-85
2022/01/11 00:21:48;;;;;;;65.85;19.33;;;0.70;99.90;;;;;;4943674;29;20034;-85
2022/01/11 00:24:32;;;;;;;56.53;19.67;;;0.70;99.90;;;;;;4960100;29;20035;-87
2022/01/11 00:27:02;;;;;;;53.28;17.80;;;0.70;99.90;;;;;;4943151;29;20454;-86
2022/01/11 00:29:31;;;;;;;52.95;16.88;;;0.80;99.90;;;;;;4942579;29;20039;-86
2022/01/11 00:32:05;;;;;;;54.85;17.55;;;0.80;99.90;;;;;;4944520;29;20035;-86
2022/01/11 00:34:40;;;;;;;59.00;18.35;;;0.80;99.90;;;;;;4943464;29;20035;-87
2022/01/11 00:37:07;;;;;;;46.70;17.38;;;0.80;99.90;;;;;;4960175;29;20031;-86
2022/01/11 00:39:33;;;;;;;65.13;19.77;;;0.70;99.90;;;;;;4959659;29;20031;-86
2022/01/11 00:41:59;;;;;;;47.17;18.02;;;0.80;99.90;;;;;;4959676;29;20470;-86
2022/01/11 00:44:25;;;;;;;56.13;19.15;;;0.80;99.90;;;;;;4959070;29;20071;-87
2022/01/11 00:46:51;;;;;;;53.58;18.90;;;0.80;99.90;;;;;;4959347;29;20459;-86
2022/01/11 00:49:18;;;;;;;55.80;18.63;;;0.80;99.90;;;;;;4942785;29;20032;-86
2022/01/11 00:51:44;;;;;;;57.55;18.40;;;0.80;99.90;;;;;;4958765;29;20089;-86
2022/01/11 00:54:09;;;;;;;51.55;19.30;;;0.80;99.90;;;;;;4958975;29;20111;-86
2022/01/11 00:56:57;;;;;;;48.58;18.58;;;0.80;99.90;;;;;;4958704;29;20039;-86
2022/01/11 00:59:22;;;;;;;46.00;16.42;;;0.90;99.90;;;;;;4942617;29;20170;-87
2022/01/11 01:01:48;;;;;;;42.88;15.75;;;0.80;99.90;;;;;;4943380;29;20059;-87
2022/01/11 01:04:14;;;;;;;39.35;14.57;;;0.80;99.90;;;;;;4942196;29;20035;-87
2022/01/11 01:06:41;;;;;;;45.10;14.32;;;0.90;99.90;;;;;;4958263;29;20027;-87
2022/01/11 01:09:10;;;;;;;50.40;14.82;;;0.80;99.90;;;;;;4958430;29;20034;-87
2022/01/11 01:11:43;;;;;;;48.03;14.38;;;0.80;99.90;;;;;;4957446;29;20034;-85
2022/01/11 01:14:10;;;;;;;41.83;14.13;;;0.80;99.90;;;;;;4942729;29;20035;-87
2022/01/11 01:16:37;;;;;;;43.05;15.65;;;0.90;99.90;;;;;;4942032;29;20032;-86
2022/01/11 01:19:10;;;;;;;37.53;14.88;;;0.90;99.90;;;;;;4957531;28;20028;-87
2022/01/11 01:21:39;;;;;;;38.08;14.27;;;0.90;99.90;;;;;;4958117;28;20035;-86
2022/01/11 01:24:09;;;;;;;35.75;14.70;;;0.90;99.90;;;;;;4958695;29;20522;-87
2022/01/11 01:26:36;;;;;;;40.40;15.65;;;0.80;99.90;;;;;;4942559;29;20042;-86
2022/01/11 01:29:02;;;;;;;40.97;13.00;;;0.80;99.90;;;;;;4943476;29;20035;-84
2022/01/11 01:31:29;;;;;;;31.35;11.52;;;0.80;99.90;;;;;;4957494;29;20031;-86
2022/01/11 01:34:16;;;;;;;30.30;10.05;;;0.80;99.90;;;;;;4943254;29;20042;-86
2022/01/11 01:36:43;;;;;;;32.65;10.43;;;0.80;99.90;;;;;;4958591;28;20046;-86
2022/01/11 01:39:09;;;;;;;25.45;10.05;;;0.80;99.90;;;;;;4943281;29;20502;-87
2022/01/11 01:41:35;;;;;;;29.30;9.57;;;0.70;99.90;;;;;;4958483;29;20038;-86
2022/01/11 01:44:02;;;;;;;25.90;9.73;;;0.80;99.90;;;;;;4942617;29;20383;-85
2022/01/11 01:46:33;;;;;;;28.75;11.23;;;0.80;99.90;;;;;;4959330;29;20534;-85
2022/01/11 01:49:14;;;;;;;27.92;10.15;;;0.80;99.90;;;;;;4943143;29;20050;-86
2022/01/11 01:51:40;;;;;;;30.50;8.98;;;0.80;99.90;;;;;;4958168;29;20070;-86
2022/01/11 01:54:06;;;;;;;34.85;9.82;;;0.80;99.90;;;;;;4958100;29;20050;-86
2022/01/11 01:56:32;;;;;;;27.88;10.48;;;0.80;99.90;;;;;;4958119;29;20058;-86
2022/01/11 01:58:58;;;;;;;34.70;11.40;;;0.90;99.90;;;;;;4941272;29;20033;-85
2022/01/11 02:01:26;;;;;;;35.33;10.93;;;0.90;99.90;;;;;;4958071;29;20394;-85
2022/01/11 02:03:52;;;;;;;38.63;11.98;;;0.90;99.90;;;;;;4941602;29;20528;-85
2022/01/11 02:06:19;;;;;;;26.23;10.40;;;0.90;99.90;;;;;;4942025;29;20066;-86
2022/01/11 02:08:48;;;;;;;31.10;11.02;;;0.90;99.90;;;;;;4941886;29;20617;-86
2022/01/11 02:11:19;;;;;;;29.42;10.15;;;0.90;99.90;;;;;;4941411;29;20035;-86
2022/01/11 02:13:46;;;;;;;;;;;0.90;99.90;;;;;;4942405;29;20489;-86
2022/01/11 02:16:14;;;;;;;28.25;10.38;;;0.90;99.90;;;;;;4942608;29;19918;-86
2022/01/11 02:18:41;;;;;;;26.20;10.13;;;0.90;99.90;;;;;;4958133;29;20035;-85
2022/01/11 02:21:11;;;;;;;23.33;8.52;;;0.80;99.90;;;;;;4941619;29;20538;-85
2022/01/11 02:23:38;;;;;;;25.83;9.82;;;0.80;99.90;;;;;;4957638;29;20616;-86
2022/01/11 02:26:05;;;;;;;23.77;8.00;;;0.80;99.90;;;;;;4957137;29;20054;-86
2022/01/11 02:28:32;;;;;;;24.35;7.88;;;0.80;99.90;;;;;;4941823;29;20038;-87
2022/01/11 02:31:01;;;;;;;20.15;7.85;;;0.80;99.90;;;;;;4958037;28;20037;-86
2022/01/11 02:33:41;;;;;;;25.10;7.65;;;0.80;99.90;;;;;;4958273;29;20067;-86
2022/01/11 02:36:31;;;;;;;20.75;9.25;;;0.70;99.90;;;;;;4956737;29;20035;-87
2022/01/11 02:39:04;;;;;;;26.88;9.82;;;0.80;99.90;;;;;;4926634;29;20094;-86
2022/01/11 02:41:30;;;;;;;26.23;9.88;;;0.80;99.90;;;;;;4941702;29;20031;-86
2022/01/11 02:44:02;;;;;;;33.95;10.43;;;0.80;99.90;;;;;;4957995;29;20086;-86
2022/01/11 02:46:28;;;;;;;23.73;9.63;;;0.80;99.90;;;;;;4957088;28;20046;-86
2022/01/11 02:48:56;;;;;;;23.55;9.80;;;0.80;99.90;;;;;;4941015;29;20034;-86
2022/01/11 02:51:24;;;;;;;30.48;9.82;;;0.70;99.90;;;;;;4956777;29;20487;-86
2022/01/11 02:53:54;;;;;;;24.55;9.52;;;0.70;99.90;;;;;;4957765;29;20038;-86
2022/01/11 02:56:22;;;;;;;29.00;8.55;;;0.70;99.90;;;;;;4941540;29;20031;-86
2022/01/11 02:58:49;;;;;;;19.70;7.85;;;0.60;99.90;;;;;;4941015;29;20027;-85
2022/01/11 03:01:36;;;;;;;19.58;7.05;;;0.70;99.90;;;;;;4957674;29;20055;-86
2022/01/11 03:04:03;;;;;;;21.02;7.97;;;0.70;99.90;;;;;;4941076;29;20027;-86
2022/01/11 03:06:29;;;;;;;19.65;7.40;;;0.70;99.90;;;;;;4956982;29;20118;-86
2022/01/11 03:08:55;;;;;;;18.30;7.53;;;0.70;99.90;;;;;;4940819;29;20059;-86
2022/01/11 03:11:24;;;;;;;18.65;7.32;;;0.80;99.90;;;;;;4940833;29;20027;-86
2022/01/11 03:13:50;;;;;;;22.30;8.20;;;0.70;99.90;;;;;;4956918;29;20031;-87
2022/01/11 03:16:17;;;;;;;21.80;7.65;;;0.80;99.90;;;;;;4956117;29;20031;-87
2022/01/11 03:18:44;;;;;;;18.73;7.53;;;0.80;99.90;;;;;;4956155;29;20038;-86
2022/01/11 03:21:11;;;;;;;19.65;7.60;;;0.80;99.90;;;;;;4956505;29;20034;-85
2022/01/11 03:23:38;;;;;;;15.18;7.65;;;0.70;99.90;;;;;;4956279;29;20042;-86
2022/01/11 03:26:04;;;;;;;16.30;7.63;;;0.60;99.90;;;;;;4940233;29;20036;-86
2022/01/11 03:28:39;;;;;;;86.60;32.42;;;0.60;99.90;;;;;;4956171;29;20034;-86
2022/01/11 03:31:04;;;;;;;99.82;35.85;;;0.50;99.90;;;;;;4956274;29;20028;-86
2022/01/11 03:33:40;;;;;;;32.83;14.98;;;0.50;99.90;;;;;;4953919;29;20024;-86
2022/01/11 03:36:06;;;;;;;28.92;12.88;;;0.50;99.90;;;;;;4939251;29;20502;-86
2022/01/11 03:38:34;;;;;;;33.30;15.10;;;0.30;99.90;;;;;;4939396;29;20023;-86
2022/01/11 03:41:05;;;;;;;26.63;12.75;;;0.30;99.90;;;;;;4939682;29;20057;-86
2022/01/11 03:43:31;;;;;;;33.88;12.77;;;0.10;99.90;;;;;;4956148;28;20071;-86
2022/01/11 03:45:57;;;;;;;37.85;10.02;;;0.10;99.90;;;;;;4943407;29;20023;-86
2022/01/11 03:48:23;;;;;;;25.25;10.82;;;0.00;99.90;;;;;;4943313;29;20031;-86
2022/01/11 03:50:53;;;;;;;33.15;13.85;;;0.00;99.90;;;;;;4942898;29;20031;-86
2022/01/11 03:53:38;;;;;;;28.63;13.30;;;0.10;99.90;;;;;;4942950;29;20038;-86
2022/01/11 03:56:21;;;;;;;32.08;13.88;;;0.20;99.90;;;;;;4959188;29;20118;-86
2022/01/11 03:58:52;;;;;;;41.63;18.67;;;0.20;99.90;;;;;;4959135;29;20035;-87
2022/01/11 04:01:19;;;;;;;60.67;24.75;;;0.20;99.90;;;;;;4943005;29;20130;-86
2022/01/11 04:03:46;;;;;;;50.33;20.33;;;0.20;99.90;;;;;;4942409;29;20050;-86
2022/01/11 04:06:27;;;;;;;27.38;11.75;;;0.20;99.90;;;;;;4958943;29;20035;-87
2022/01/11 04:09:00;;;;;;;28.73;10.57;;;0.20;99.90;;;;;;4958530;29;20086;-87
2022/01/11 04:11:27;;;;;;;30.65;11.98;;;0.10;99.90;;;;;;4960073;29;20042;-87
2022/01/11 04:13:53;;;;;;;34.67;12.75;;;0.00;99.90;;;;;;4942897;29;20031;-86
2022/01/11 04:16:21;;;;;;;30.10;12.20;;;-0.10;99.90;;;;;;4958574;28;20094;-86
2022/01/11 04:18:55;;;;;;;30.15;12.32;;;-0.10;99.90;;;;;;4959769;29;20023;-86
2022/01/11 04:21:22;;;;;;;33.10;12.60;;;-0.20;99.90;;;;;;4942914;29;20113;-87
2022/01/11 04:23:53;;;;;;;31.70;11.75;;;-0.20;99.90;;;;;;4957841;29;20047;-86
2022/01/11 04:26:19;;;;;;;40.22;13.65;;;-0.10;99.90;;;;;;4957700;29;20046;-87
2022/01/11 04:28:45;;;;;;;36.72;12.65;;;-0.10;99.90;;;;;;4942232;29;20027;-86
2022/01/11 04:31:11;;;;;;;32.83;12.88;;;0.00;99.90;;;;;;4958167;29;20042;-87
2022/01/11 04:37:24;;;;;;;50.63;14.05;;;0.10;99.90;;;;;;4959755;29;20448;-86
2022/01/11 04:39:50;;;;;;;47.25;15.50;;;0.20;99.90;;;;;;4941497;29;20102;-86
2022/01/11 04:42:17;;;;;;;44.20;14.60;;;0.20;99.90;;;;;;4957542;29;20289;-86
2022/01/11 04:44:43;;;;;;;36.60;14.70;;;0.30;99.90;;;;;;4957481;29;20031;-86
2022/01/11 04:47:08;;;;;;;45.45;16.92;;;0.40;99.90;;;;;;4941846;29;20035;-87
2022/01/11 04:49:34;;;;;;;38.15;15.20;;;0.40;99.90;;;;;;4941655;29;20020;-86
2022/01/11 04:52:02;;;;;;;38.80;15.20;;;0.50;99.90;;;;;;4941439;29;20031;-86
2022/01/11 04:54:28;;;;;;;42.25;15.32;;;0.50;99.90;;;;;;4940827;28;20186;-87
2022/01/11 04:56:54;;;;;;;43.55;16.63;;;0.50;99.90;;;;;;4957064;28;20129;-86
2022/01/11 04:59:44;;;;;;;45.22;18.27;;;0.50;99.90;;;;;;4957389;28;20054;-86
2022/01/11 05:02:10;;;;;;;38.92;16.58;;;0.60;99.90;;;;;;4957259;29;20028;-86
2022/01/11 05:04:37;;;;;;;47.72;18.67;;;0.60;99.90;;;;;;4956750;29;20027;-86
2022/01/11 05:07:03;;;;;;;49.03;18.05;;;0.70;99.90;;;;;;4956940;29;20038;-86
2022/01/11 05:09:29;;;;;;;39.08;16.88;;;0.70;99.90;;;;;;4940734;29;20035;-87
2022/01/11 05:11:55;;;;;;;43.67;16.67;;;0.70;99.90;;;;;;4941219;29;20031;-86
2022/01/11 05:14:21;;;;;;;42.00;16.92;;;0.70;99.90;;;;;;4940669;29;20042;-86
2022/01/11 05:16:49;;;;;;;51.92;18.88;;;0.70;99.90;;;;;;4956363;29;20073;-86
2022/01/11 05:19:15;;;;;;;53.28;17.98;;;0.80;99.90;;;;;;4956553;29;20388;-86
2022/01/11 05:21:52;;;;;;;54.03;20.08;;;0.80;99.90;;;;;;4956450;29;20487;-86
2022/01/11 05:24:18;;;;;;;49.92;18.55;;;0.80;99.90;;;;;;4940453;29;20114;-86
2022/01/11 05:26:48;;;;;;;52.20;17.70;;;0.80;99.90;;;;;;4956059;28;20027;-87
2022/01/11 05:29:14;;;;;;;46.28;17.50;;;0.80;99.90;;;;;;4956462;29;20091;-86
2022/01/11 05:31:40;;;;;;;56.17;17.88;;;0.80;99.90;;;;;;4955998;29;20038;-86
2022/01/11 05:34:06;;;;;;;52.45;18.58;;;0.90;99.90;;;;;;4956574;29;20472;-86
2022/01/11 05:36:32;;;;;;;44.03;18.40;;;0.90;99.90;;;;;;4956619;29;20028;-86
2022/01/11 05:38:58;;;;;;;42.08;17.75;;;0.90;99.90;;;;;;4940776;29;20031;-86
2022/01/11 05:41:24;;;;;;;36.45;16.02;;;1.00;99.90;;;;;;4940310;29;20031;-86
2022/01/11 05:43:50;;;;;;;45.92;16.38;;;1.00;99.90;;;;;;4956299;29;20031;-86
2022/01/11 05:46:16;;;;;;;35.35;15.38;;;1.00;99.90;;;;;;4956353;29;20438;-86
2022/01/11 05:48:44;;;;;;;36.83;16.50;;;1.00;99.90;;;;;;4956465;29;20138;-86
2022/01/11 05:51:12;;;;;;;33.75;16.75;;;1.00;99.90;;;;;;4940696;29;20054;-86
2022/01/11 05:53:39;;;;;;;45.90;17.15;;;1.00;99.90;;;;;;4940150;29;20035;-86
2022/01/11 05:56:04;;;;;;;37.80;17.85;;;1.00;99.90;;;;;;4956728;28;20031;-86
2022/01/11 05:58:30;;;;;;;47.80;19.08;;;1.00;99.90;;;;;;4955873;29;20031;-86
2022/01/11 06:00:56;;;;;;;40.28;17.75;;;1.00;99.90;;;;;;4939901;29;20023;-87
2022/01/11 06:03:22;;;;;;;45.03;16.98;;;1.00;99.90;;;;;;4956582;29;20034;-86
2022/01/11 06:05:49;;;;;;;43.78;15.82;;;1.00;99.90;;;;;;4955886;28;20035;-86
2022/01/11 06:08:17;;;;;;;45.85;17.02;;;1.10;99.90;;;;;;4956205;29;20031;-86
2022/01/11 06:10:46;;;;;;;37.63;16.00;;;1.10;99.90;;;;;;4955559;29;20118;-86
2022/01/11 06:13:13;;;;;;;43.78;16.30;;;1.00;99.90;;;;;;4939731;29;20833;-86
2022/01/11 06:15:40;;;;;;;44.72;18.25;;;1.00;99.90;;;;;;4939977;29;20032;-86
2022/01/11 06:18:06;;;;;;;50.42;20.23;;;1.00;99.90;;;;;;4939754;29;20118;-86
2022/01/11 06:20:40;;;;;;;65.68;22.30;;;1.00;99.90;;;;;;4939389;29;20087;-86
2022/01/11 06:23:06;;;;;;;51.83;21.15;;;1.10;99.90;;;;;;4955079;29;20475;-86
2022/01/11 06:25:32;;;;;;;55.75;21.30;;;1.10;99.90;;;;;;4955448;29;20035;-86
2022/01/11 06:27:58;;;;;;;40.70;17.88;;;1.10;99.90;;;;;;4939368;29;20074;-86
2022/01/11 06:30:24;;;;;;;47.35;18.45;;;1.10;99.90;;;;;;4955379;29;20039;-86
2022/01/11 06:32:50;;;;;;;37.45;15.70;;;1.10;99.90;;;;;;4955468;29;20035;-86
2022/01/11 06:35:18;;;;;;;37.70;15.70;;;1.10;99.90;;;;;;4939373;29;20031;-86
2022/01/11 06:37:47;;;;;;;35.72;14.75;;;1.00;99.90;;;;;;4939552;29;20027;-86
2022/01/11 06:40:17;;;;;;;29.50;13.93;;;1.00;99.90;;;;;;4939388;29;20122;-86
2022/01/11 06:42:44;;;;;;;31.85;13.25;;;1.00;99.90;;;;;;4939431;29;20082;-86
2022/01/11 06:45:11;;;;;;;23.65;11.15;;;1.00;99.90;;;;;;4939128;29;20126;-86
2022/01/11 06:47:38;;;;;;;38.30;13.20;;;1.00;99.90;;;;;;4939191;29;20033;-86
2022/01/11 06:50:05;;;;;;;32.78;12.93;;;1.00;99.90;;;;;;4939786;29;20023;-86
2022/01/11 06:52:32;;;;;;;36.65;13.60;;;1.00;99.90;;;;;;4939009;29;20118;-86
2022/01/11 06:54:59;;;;;;;33.97;13.52;;;1.00;99.90;;;;;;4954890;29;20050;-86
2022/01/11 06:57:27;;;;;;;42.15;14.80;;;1.00;99.90;;;;;;4955169;29;20027;-86
2022/01/11 06:59:52;;;;;;;39.35;15.15;;;1.00;99.90;;;;;;4955132;29;20043;-86
2022/01/11 07:02:22;;;;;;;40.80;16.42;;;1.00;99.90;;;;;;4954472;29;20050;-86
2022/01/11 07:05:10;;;;;;;37.25;17.02;;;1.00;99.90;;;;;;4953233;29;20032;-86
2022/01/11 07:07:37;;;;;;;40.67;16.15;;;1.10;99.90;;;;;;4939325;29;20046;-86
2022/01/11 07:10:04;;;;;;;40.78;15.20;;;1.00;99.90;;;;;;4955152;29;20031;-86
2022/01/11 07:12:30;;;;;;;43.45;15.77;;;1.00;99.90;;;;;;4938927;29;20028;-87
2022/01/11 07:14:55;;;;;;;36.90;16.40;;;1.00;99.90;;;;;;4955015;29;20361;-86
2022/01/11 07:17:23;;;;;;;45.25;16.20;;;1.10;99.90;;;;;;4954936;28;20031;-86
2022/01/11 07:19:51;;;;;;;37.28;15.25;;;1.10;99.90;;;;;;4954578;29;20023;-86
2022/01/11 07:22:17;;;;;;;41.80;17.17;;;1.10;99.90;;;;;;4938949;29;20641;-88
2022/01/11 07:24:44;;;;;;;34.92;15.77;;;1.10;99.90;;;;;;4938866;29;20455;-88
2022/01/11 07:27:10;;;;;;;37.60;16.38;;;1.10;99.90;;;;;;4939010;29;20043;-87
2022/01/11 07:29:37;;;;;;;44.97;18.05;;;1.10;99.90;;;;;;4954827;29;20027;-86
2022/01/11 07:32:03;;;;;;;38.15;17.60;;;1.10;99.90;;;;;;4954572;29;20475;-87
2022/01/11 07:34:32;;;;;;;43.15;18.67;;;1.20;99.90;;;;;;4955209;29;20054;-87
2022/01/11 07:36:58;;;;;;;37.75;17.13;;;1.20;99.90;;;;;;4955010;29;20603;-88
2022/01/11 07:39:30;;;;;;;45.92;16.85;;;1.20;99.90;;;;;;4954908;29;20082;-87
2022/01/11 07:41:57;;;;;;;44.38;16.20;;;1.20;99.90;;;;;;4954716;29;20624;-87
2022/01/11 07:44:43;;;;;;;38.15;17.98;;;1.20;99.90;;;;;;4952164;29;20031;-87
2022/01/11 07:47:09;;;;;;;51.28;18.00;;;1.20;99.90;;;;;;4939255;29;20403;-88
2022/01/11 07:49:37;;;;;;;43.20;19.17;;;1.30;99.90;;;;;;4954658;29;20034;-87
2022/01/11 07:52:03;;;;;;;42.67;18.15;;;1.30;99.90;;;;;;4938710;29;20027;-87
2022/01/11 07:54:28;;;;;;;40.05;17.05;;;1.30;99.90;;;;;;4938906;29;20035;-87
2022/01/11 07:56:57;;;;;;;48.45;16.92;;;1.40;99.90;;;;;;4938818;29;20755;-87
2022/01/11 07:59:23;;;;;;;36.67;15.82;;;1.40;99.90;;;;;;4954323;29;20034;-88
2022/01/11 08:01:48;;;;;;;38.40;16.70;;;1.40;99.90;;;;;;4954222;29;20027;-87
2022/01/11 08:04:17;;;;;;;36.47;16.92;;;1.50;99.90;;;;;;4938400;29;20078;-87
2022/01/11 08:06:47;;;;;;;42.95;18.10;;;1.50;99.90;;;;;;4954113;28;20035;-87
2022/01/11 08:09:39;;;;;;;39.80;18.20;;;1.50;99.90;;;;;;4950857;29;20057;-88
2022/01/11 08:12:05;;;;;;;36.08;17.45;;;1.60;99.90;;;;;;4938620;29;20031;-88
2022/01/11 08:14:30;;;;;;;43.75;18.95;;;1.60;99.90;;;;;;4954510;28;20050;-87
2022/01/11 08:16:58;;;;;;;41.60;19.23;;;1.70;99.90;;;;;;4954202;29;20031;-87
2022/01/11 08:19:26;;;;;;;38.13;18.10;;;1.80;99.90;;;;;;4938902;29;20036;-88
2022/01/11 08:21:55;;;;;;;39.47;18.35;;;1.80;99.90;;;;;;4954586;29;20027;-87
2022/01/11 08:24:24;;;;;;;38.08;17.50;;;1.80;99.90;;;;;;4938774;29;20427;-88
2022/01/11 08:26:53;;;;;;;32.63;16.92;;;1.80;99.90;;;;;;4938975;29;20031;-87
2022/01/11 08:29:20;;;;;;;33.03;12.98;;;1.80;99.90;;;;;;4939400;29;20368;-88
2022/01/11 08:31:49;;;;;;;36.65;13.88;;;1.80;99.90;;;;;;4942035;29;20035;-87
2022/01/11 08:34:16;;;;;;;33.38;12.48;;;1.80;99.90;;;;;;4942290;29;20031;-87
2022/01/11 08:36:43;;;;;;;25.05;12.80;;;1.90;99.90;;;;;;4942010;29;20035;-87
2022/01/11 08:39:11;;;;;;;26.77;12.98;;;1.90;99.90;;;;;;4941746;29;20424;-87
2022/01/11 08:41:39;;;;;;;30.27;13.48;;;2.00;99.90;;;;;;4926632;29;20037;-87
2022/01/11 08:44:05;;;;;;;26.15;12.30;;;2.00;99.90;;;;;;4942101;29;20483;-88
2022/01/11 08:46:32;;;;;;;26.98;12.00;;;2.10;99.90;;;;;;4957714;29;20058;-87
2022/01/11 08:49:04;;;;;;;22.63;11.48;;;2.20;99.90;;;;;;4942012;29;20034;-88
2022/01/11 08:51:30;;;;;;;27.13;11.52;;;2.20;99.90;;;;;;4957747;29;20031;-87
2022/01/11 08:53:58;;;;;;;21.35;11.13;;;2.20;99.90;;;;;;4941843;29;20031;-87
2022/01/11 08:56:23;;;;;;;27.33;11.65;;;2.30;99.90;;;;;;4957928;29;20443;-87
2022/01/11 08:58:50;;;;;;;29.88;11.32;;;2.30;99.90;;;;;;4941954;29;20086;-87
2022/01/11 09:02:03;;;;;;;25.83;12.27;;;2.40;99.90;;;;;;4942158;29;20558;-86
2022/01/11 09:04:30;;;;;;;22.77;11.20;;;2.40;99.90;;;;;;4941342;29;20038;-86
2022/01/11 09:07:12;;;;;;;32.40;11.77;;;2.40;99.90;;;;;;4955401;29;20033;-87
2022/01/11 09:09:38;;;;;;;24.95;11.27;;;2.40;99.90;;;;;;4957754;29;20069;-87
2022/01/11 09:12:12;;;;;;;23.98;11.77;;;2.40;99.90;;;;;;4957625;29;20064;-87
2022/01/11 09:14:41;;;;;;;27.60;12.68;;;2.40;99.90;;;;;;4941373;29;20031;-86
2022/01/11 09:17:08;;;;;;;28.25;13.73;;;2.40;99.90;;;;;;4941254;29;20122;-87
2022/01/11 09:19:34;;;;;;;30.80;13.55;;;2.50;99.90;;;;;;4941291;29;20027;-86
2022/01/11 09:22:01;;;;;;;27.23;13.30;;;2.50;99.90;;;;;;4957353;29;20963;-87
2022/01/11 09:24:29;;;;;;;27.67;14.07;;;2.50;99.90;;;;;;4941204;29;20032;-88
2022/01/11 09:26:58;;;;;;;22.50;11.90;;;2.50;99.90;;;;;;4956782;29;20028;-87
2022/01/11 09:29:26;;;;;;;21.95;10.85;;;2.50;99.90;;;;;;4940761;29;20056;-88
2022/01/11 09:31:56;;;;;;;28.42;10.50;;;2.60;99.90;;;;;;4956593;29;20028;-85
2022/01/11 09:34:33;;;;;;;27.83;11.50;;;2.60;99.90;;;;;;4941382;29;20448;-87
2022/01/11 09:37:08;;;;;;;29.73;14.13;;;2.60;99.90;;;;;;4957184;29;20036;-86
2022/01/11 09:39:35;;;;;;;31.20;12.90;;;2.60;99.90;;;;;;4941803;29;20031;-86
2022/01/11 09:42:02;;;;;;;30.58;13.07;;;2.60;99.90;;;;;;4941367;29;20058;-87
2022/01/11 09:44:29;;;;;;;25.98;12.57;;;2.60;99.90;;;;;;4957747;29;20027;-87
2022/01/11 09:46:54;;;;;;;26.73;12.07;;;2.60;99.90;;;;;;4958173;29;20078;-87
2022/01/11 09:49:40;;;;;;;20.17;11.10;;;2.70;99.90;;;;;;4957038;29;20070;-86
2022/01/11 09:52:08;;;;;;;26.55;11.20;;;2.80;99.90;;;;;;4941795;29;20087;-86
2022/01/11 09:54:37;;;;;;;20.83;10.88;;;2.80;99.90;;;;;;4940811;29;20483;-85
2022/01/11 09:57:05;;;;;;;20.85;11.63;;;2.80;99.90;;;;;;4940008;29;20035;-86
2022/01/11 09:59:32;;;;;;;23.88;11.20;;;3.00;99.90;;;;;;4956552;29;20059;-86
2022/01/11 10:02:17;;;;;;;24.42;11.32;;;3.00;99.90;;;;;;4957199;29;20120;-86
2022/01/11 10:05:10;;;;;;;19.70;9.68;;;3.00;99.90;;;;;;4941244;29;20090;-86
2022/01/11 10:07:46;;;;;;;23.00;9.05;;;3.20;99.90;;;;;;4956718;29;20483;-86
2022/01/11 10:10:16;;;;;;;20.13;9.40;;;3.10;99.90;;;;;;4956839;29;20027;-87
2022/01/11 10:12:50;;;;;;;24.45;9.70;;;3.20;99.90;;;;;;4940832;29;20023;-86
2022/01/11 10:15:39;;;;;;;17.83;10.10;;;3.40;99.90;;;;;;4956578;29;20439;-86
2022/01/11 10:18:36;;;;;;;18.58;9.45;;;3.40;99.90;;;;;;4940388;29;20118;-86
2022/01/11 10:21:33;;;;;;;25.88;11.98;;;3.60;99.90;;;;;;4940880;29;20109;-86
2022/01/11 10:24:26;;;;;;;115.32;41.38;;;3.70;99.90;;;;;;4941487;29;20027;-86
2022/01/11 10:26:56;;;;;;;58.35;29.25;;;3.80;99.90;;;;;;4937043;29;20130;-86
2022/01/11 10:29:25;;;;;;;75.50;34.15;;;3.90;99.90;;;;;;4940134;29;20035;-86
2022/01/11 10:31:53;;;;;;;41.63;21.15;;;4.00;99.90;;;;;;4955669;29;20031;-85
2022/01/11 10:34:48;;;;;;;28.75;13.82;;;4.00;99.90;;;;;;4939771;29;20023;-86
2022/01/11 10:37:27;;;;;;;24.27;11.32;;;4.10;99.90;;;;;;4938189;29;20102;-86
2022/01/11 10:40:07;;;;;;;25.33;11.85;;;4.20;99.90;;;;;;4940243;29;20035;-86
2022/01/11 10:42:38;;;;;;;21.33;10.38;;;4.20;99.90;;;;;;4955765;29;20062;-86
2022/01/11 10:45:06;;;;;;;17.27;9.02;;;4.20;99.90;;;;;;4939811;29;20024;-86
2022/01/11 10:47:38;;;;;;;20.45;9.13;;;4.20;99.90;;;;;;4955629;29;20483;-86
2022/01/11 10:50:14;;;;;;;23.88;10.40;;;4.20;99.90;;;;;;4955530;29;20027;-86
2022/01/11 10:52:42;;;;;;;20.27;10.02;;;4.20;99.90;;;;;;4938866;29;20028;-85
2022/01/11 10:55:19;;;;;;;29.83;13.52;;;4.20;99.90;;;;;;4939080;29;20896;-85
2022/01/11 10:57:53;;;;;;;28.52;13.00;;;4.20;99.90;;;;;;4938792;29;20031;-85
2022/01/11 11:00:26;;;;;;;21.55;10.38;;;4.20;99.90;;;;;;4939082;29;20027;-85
2022/01/11 11:03:16;;;;;;;20.30;10.98;;;4.10;99.90;;;;;;4939076;29;20043;-85
2022/01/11 11:05:58;;;;;;;22.38;10.40;;;4.30;99.90;;;;;;4930401;29;20055;-85
2022/01/11 11:08:34;;;;;;;26.40;11.23;;;4.40;99.90;;;;;;4938886;29;20042;-85
2022/01/11 11:11:20;;;;;;;20.75;10.45;;;4.30;99.90;;;;;;4939488;29;20036;-85
2022/01/11 11:13:57;;;;;;;16.23;7.47;;;4.50;99.90;;;;;;4939310;29;20027;-86
2022/01/11 11:16:27;;;;;;;20.73;8.80;;;4.60;99.90;;;;;;4939489;29;20033;-87
2022/01/11 11:18:57;;;;;;;18.30;8.60;;;4.60;99.90;;;;;;4939843;29;20031;-86
2022/01/11 11:21:39;;;;;;;18.23;8.93;;;4.60;99.90;;;;;;4955333;29;20078;-87
2022/01/11 11:24:10;;;;;;;16.63;9.38;;;4.80;99.90;;;;;;4955268;29;20085;-87
2022/01/11 11:26:40;;;;;;;;;;;4.80;99.90;;;;;;4955220;29;20043;-87
2022/01/11 11:29:09;;;;;;;22.65;10.98;;;5.00;99.90;;;;;;4938577;29;19934;-87
2022/01/11 11:31:35;;;;;;;19.05;8.93;;;5.00;99.90;;;;;;4938464;29;20157;-87
2022/01/11 11:34:02;;;;;;;17.65;10.35;;;5.10;99.90;;;;;;4954898;29;20094;-86
2022/01/11 11:36:30;;;;;;;16.17;8.50;;;5.10;99.90;;;;;;4938572;29;20041;-87
2022/01/11 11:38:59;;;;;;;19.83;12.02;;;5.20;99.90;;;;;;4939464;29;20483;-86
2022/01/11 11:41:27;;;;;;;25.05;12.10;;;5.20;99.90;;;;;;4954768;29;20027;-86
2022/01/11 11:44:12;;;;;;;23.42;12.13;;;5.30;99.90;;;;;;4938608;29;20090;-86
2022/01/11 11:46:44;;;;;;;19.08;11.05;;;5.40;99.90;;;;;;4954539;29;20037;-86
2022/01/11 11:49:12;;;;;;;19.00;11.10;;;5.40;99.90;;;;;;4954683;29;20093;-86
2022/01/11 11:51:39;;;;;;;23.42;11.07;;;5.40;99.90;;;;;;4938846;29;20504;-86
2022/01/11 11:54:14;;;;;;;17.27;8.68;;;5.40;99.90;;;;;;4938575;29;20487;-86
2022/01/11 11:56:44;;;;;;;16.67;8.60;;;5.30;99.90;;;;;;4954568;29;20046;-86
2022/01/11 11:59:10;;;;;;;14.75;8.07;;;5.10;99.90;;;;;;4954350;29;20487;-86
2022/01/11 12:01:48;;;;;;;20.38;9.18;;;5.10;99.90;;;;;;4953921;29;20030;-87
2022/01/11 12:04:31;;;;;;;14.45;8.65;;;5.10;99.90;;;;;;4955234;28;20038;-86
2022/01/11 12:07:18;;;;;;;10.23;7.00;;;5.00;99.90;;;;;;4947636;29;20042;-86
2022/01/11 12:09:45;;;;;;;27.90;9.13;;;5.10;99.90;;;;;;4944469;29;20042;-86
2022/01/11 12:12:16;;;;;;;21.25;9.40;;;5.20;99.90;;;;;;4958300;28;20407;-86
2022/01/11 12:14:42;;;;;;;15.70;8.93;;;5.30;99.90;;;;;;4958028;29;20035;-86
2022/01/11 12:17:16;;;;;;;17.10;9.40;;;5.40;99.90;;;;;;4958132;29;20169;-86
2022/01/11 12:19:44;;;;;;;22.80;9.73;;;5.30;99.90;;;;;;4957879;29;20035;-85
2022/01/11 12:22:16;;;;;;;18.80;8.33;;;5.20;99.90;;;;;;4957919;29;20031;-87
2022/01/11 12:24:45;;;;;;;16.63;9.65;;;5.20;99.90;;;;;;4957965;29;20274;-86
2022/01/11 12:27:13;;;;;;;12.63;6.85;;;5.10;99.90;;;;;;4958068;29;20360;-86
2022/01/11 12:29:57;;;;;;;17.25;9.88;;;5.10;99.90;;;;;;4941869;29;20054;-86
2022/01/11 12:32:23;;;;;;;19.48;10.73;;;5.10;99.90;;;;;;4958972;29;20558;-86
2022/01/11 12:34:55;;;;;;;17.48;9.10;;;5.20;99.90;;;;;;4941595;29;20031;-86
2022/01/11 12:37:29;;;;;;;15.95;7.80;;;5.20;99.90;;;;;;4957581;29;20126;-86
2022/01/11 12:40:00;;;;;;;12.25;7.93;;;5.20;99.90;;;;;;4957744;29;20510;-86
2022/01/11 12:42:27;;;;;;;21.02;7.72;;;5.10;99.90;;;;;;4957510;29;20407;-85
2022/01/11 12:47:21;;;;;;;14.07;8.52;;;5.00;99.90;;;;;;4958864;29;20043;-86
2022/01/11 12:50:07;;;;;;;17.95;9.10;;;5.00;99.90;;;;;;4957501;29;20074;-85
2022/01/11 12:52:35;;;;;;;18.30;9.73;;;5.10;99.90;;;;;;4957502;29;20031;-86
2022/01/11 12:55:02;;;;;;;16.63;10.18;;;5.20;99.90;;;;;;4957379;29;20031;-85
2022/01/11 12:57:30;;;;;;;14.85;9.23;;;5.00;99.90;;;;;;4941235;29;20043;-86
2022/01/11 12:59:58;;;;;;;17.75;8.77;;;4.70;99.90;;;;;;4941308;29;20054;-86
2022/01/11 13:02:26;;;;;;;12.82;8.32;;;4.70;99.90;;;;;;4957018;29;20436;-86